Landes Station, West Virginia
Current Conditions -  °F | °C
As of 5:35 AM on Monday 20 Oct 2014 (Local Time) from K8W2 Reporting Station
Clear Clear  
Wind Chill: 34°   Ceiling: Unl
Heat Index: 34°   Visibility: 10mi
Dew Point: 34°   Wind: 0mph
Humidity: 98%   Direction: NA
Pressure: 30.08"   Gusts: NA
Location:  38.9337°N, 79.1435°W
Report Text: K8W2 200935Z AUTO 00000KT 10SM CLR 01/01 A3008 RMK AO1 T00130010
Loading
Personal Weather Stations






























Interactive Weather Map
Tropical Storm Tracking
New forecast layout! Learn more

10-Day Weather Forecast

Advertisements
Track Severe Weather on mobile